createdAt,value
2023-05-10T04:26:02.600Z,11.23
2023-05-10T04:30:06.477Z,11.23
2023-05-10T04:34:09.194Z,10.86
2023-05-10T04:38:12.197Z,11.23
2023-05-10T04:42:16.130Z,11.73
2023-05-10T04:46:19.159Z,11.92
2023-05-10T04:50:21.857Z,12.06
2023-05-10T04:54:25.398Z,12.12
2023-05-10T04:58:28.031Z,12.10
2023-05-10T05:02:31.928Z,12.24
2023-05-10T05:06:34.617Z,12.25
2023-05-10T05:10:37.650Z,12.10
2023-05-10T05:14:40.416Z,12.00
2023-05-10T05:18:43.416Z,12.00
2023-05-10T05:22:46.284Z,12.09
2023-05-10T05:26:49.792Z,12.03
2023-05-10T05:30:52.616Z,12.24
2023-05-10T05:34:55.941Z,12.29
2023-05-10T05:38:58.829Z,12.44
2023-05-10T05:43:01.820Z,12.60
2023-05-10T05:47:04.718Z,12.71
2023-05-10T05:51:08.040Z,13.15
2023-05-10T05:55:14.076Z,13.05
2023-05-10T05:59:18.372Z,13.44
2023-05-10T06:03:22.294Z,13.27
2023-05-10T06:07:25.588Z,13.30
2023-05-10T06:11:28.355Z,13.81
2023-05-10T06:15:31.330Z,13.53
2023-05-10T06:19:34.030Z,13.73
2023-05-10T06:23:37.189Z,13.68
2023-05-10T06:27:39.829Z,13.79
2023-05-10T06:31:42.981Z,14.03
2023-05-10T06:35:45.715Z,14.01
2023-05-10T06:39:48.752Z,13.85
2023-05-10T06:43:51.581Z,14.16
2023-05-10T06:47:54.870Z,13.95
2023-05-10T06:51:58.475Z,14.68
2023-05-10T06:56:01.637Z,15.14
2023-05-10T07:00:05.973Z,15.19
2023-05-10T07:04:09.529Z,15.09
2023-05-10T07:08:12.279Z,14.52
2023-05-10T07:12:16.237Z,14.35
2023-05-10T07:16:20.370Z,14.19
2023-05-10T07:20:23.720Z,14.66
2023-05-10T07:24:26.731Z,14.79
2023-05-10T07:28:29.748Z,15.63
2023-05-10T07:32:32.892Z,15.76
2023-05-10T07:36:37.204Z,15.59
2023-05-10T07:40:48.924Z,15.83
2023-05-10T07:44:54.257Z,16.71
2023-05-10T07:48:57.054Z,16.01
2023-05-10T07:53:00.139Z,16.90
2023-05-10T07:57:02.896Z,16.35
2023-05-10T08:01:06.226Z,16.37
2023-05-10T08:05:10.791Z,16.35
2023-05-10T08:09:16.420Z,16.38
2023-05-10T08:13:20.728Z,17.14
2023-05-10T08:17:24.886Z,17.24
2023-05-10T08:21:29.193Z,16.97
2023-05-10T08:25:32.850Z,17.46
2023-05-10T08:29:48.959Z,17.42
2023-05-10T08:33:53.773Z,16.94
2023-05-10T08:37:56.813Z,17.57
2023-05-10T08:42:02.689Z,18.23
2023-05-10T08:46:06.468Z,17.57
2023-05-10T08:50:09.612Z,19.01
2023-05-10T08:54:12.963Z,19.86
2023-05-10T08:58:15.696Z,18.06
2023-05-10T09:02:19.550Z,18.39
2023-05-10T09:06:22.299Z,18.51
2023-05-10T09:10:27.998Z,19.66
2023-05-10T09:14:32.094Z,18.51
2023-05-10T09:18:35.275Z,19.81
2023-05-10T09:22:38.948Z,19.98
2023-05-10T09:26:49.597Z,20.29
2023-05-10T09:30:56.729Z,19.98
2023-05-10T09:35:07.086Z,19.01
2023-05-10T09:39:10.086Z,19.89
2023-05-10T09:43:35.917Z,19.61
2023-05-10T09:47:38.668Z,19.82
2023-05-10T09:51:45.916Z,19.93
2023-05-10T09:55:50.474Z,20.76
2023-05-10T09:59:55.439Z,20.21
2023-05-10T10:03:59.422Z,20.81
2023-05-10T10:08:05.091Z,21.03
2023-05-10T10:12:08.077Z,21.57
2023-05-10T10:16:11.506Z,21.36
2023-05-10T10:20:14.607Z,21.43
2023-05-10T10:24:17.936Z,21.83
2023-05-10T10:28:39.239Z,21.88
2023-05-10T10:33:30.190Z,21.71
2023-05-10T10:37:59.627Z,21.77
2023-05-10T10:42:06.618Z,23.01
2023-05-10T10:46:19.671Z,23.57
2023-05-10T10:50:29.744Z,23.80
2023-05-10T10:54:36.604Z,23.20
2023-05-10T10:58:42.999Z,23.12
2023-05-10T11:02:49.403Z,24.25
2023-05-10T11:07:12.702Z,22.89
2023-05-10T11:11:17.293Z,24.00
2023-05-10T11:15:21.849Z,23.28
2023-05-10T11:19:32.693Z,22.02
2023-05-10T11:23:53.603Z,21.48
2023-05-10T11:27:56.504Z,21.27
2023-05-10T11:32:01.301Z,21.03
2023-05-10T11:36:04.151Z,20.88
2023-05-10T11:40:07.813Z,22.57
2023-05-10T11:44:13.237Z,22.28
2023-05-10T11:48:18.226Z,21.64
2023-05-10T11:52:21.488Z,21.53
2023-05-10T11:56:24.728Z,21.11
2023-05-10T12:00:28.749Z,20.64
2023-05-10T12:04:32.467Z,20.56
2023-05-10T12:08:35.318Z,20.30
2023-05-10T12:12:39.747Z,20.74
2023-05-10T12:16:44.551Z,20.62
2023-05-10T12:20:48.178Z,21.00
2023-05-10T12:24:52.017Z,21.55
2023-05-10T12:29:12.326Z,21.58
2023-05-10T12:33:21.573Z,23.49
2023-05-10T12:37:29.497Z,21.98
2023-05-10T12:41:34.496Z,21.54
2023-05-10T12:45:37.680Z,21.57
2023-05-10T12:49:40.323Z,20.77
2023-05-10T12:53:46.127Z,20.47
2023-05-10T12:57:49.929Z,20.47
2023-05-10T13:01:55.185Z,20.71
2023-05-10T13:05:57.877Z,21.02
2023-05-10T13:10:00.893Z,21.80
2023-05-10T13:14:04.475Z,20.91
2023-05-10T13:18:07.614Z,20.96
2023-05-10T13:22:10.323Z,21.85
2023-05-10T13:26:13.325Z,23.23
2023-05-10T13:30:16.406Z,23.90
2023-05-10T13:34:21.714Z,23.35
2023-05-10T13:38:24.464Z,22.51
2023-05-10T13:42:28.257Z,22.50
2023-05-10T13:46:31.938Z,23.19
2023-05-10T13:50:35.058Z,22.93
2023-05-10T13:54:39.139Z,23.83
2023-05-10T13:58:42.473Z,23.42
2023-05-10T14:02:45.341Z,23.89
2023-05-10T14:06:48.460Z,23.49
2023-05-10T14:10:51.870Z,23.28
2023-05-10T14:14:54.826Z,22.24
2023-05-10T14:18:57.497Z,21.91
2023-05-10T14:23:01.246Z,21.74
2023-05-10T14:27:04.013Z,22.96
2023-05-10T14:31:07.315Z,23.77
2023-05-10T14:35:12.194Z,24.34
2023-05-10T14:39:16.740Z,23.15
2023-05-10T14:43:19.745Z,22.65
2023-05-10T14:47:22.766Z,22.00
2023-05-10T14:51:25.472Z,21.60
2023-05-10T14:55:28.500Z,21.32
2023-05-10T14:59:31.151Z,20.67
2023-05-10T15:03:34.654Z,20.55
2023-05-10T15:07:37.704Z,19.90
2023-05-10T15:11:40.702Z,20.14
2023-05-10T15:15:43.720Z,20.11
2023-05-10T15:19:46.789Z,19.99
2023-05-10T20:46:48.743Z,13.99
2023-05-10T20:50:51.940Z,13.99
2023-05-10T20:54:54.654Z,13.24
2023-05-10T20:58:57.768Z,13.19
2023-05-10T21:03:00.670Z,13.17
2023-05-10T21:41:48.612Z,13.16
2023-05-10T21:45:51.691Z,13.16
2023-05-10T21:49:54.304Z,12.45
2023-05-10T21:53:57.304Z,12.32
2023-05-10T21:57:59.881Z,12.53
2023-05-10T22:02:02.995Z,12.38
2023-05-10T22:06:06.453Z,12.40
2023-05-10T22:10:09.941Z,12.46
2023-05-10T22:14:12.949Z,12.23
2023-05-10T22:18:15.724Z,12.25
2023-05-10T22:22:18.733Z,12.17
2023-05-10T22:26:22.332Z,12.15
2023-05-10T22:30:25.438Z,12.23
2023-05-10T22:34:28.073Z,12.21
2023-05-10T22:38:30.976Z,12.31
2023-05-10T22:42:33.971Z,12.28
2023-05-10T22:46:37.536Z,12.35
2023-05-10T22:50:40.218Z,12.54
2023-05-10T22:54:44.405Z,12.60
2023-05-10T22:58:47.019Z,12.67
2023-05-10T23:02:50.109Z,12.67
2023-05-10T23:06:53.740Z,12.65
2023-05-10T23:10:56.994Z,12.71
